Time;durP1;ratioP1;P1;durP2;ratioP2;P2;SDS_P1;SDS_P2;PMS_P1;PMS_P2;Temp;Humidity;BMP_temperature;BMP_pressure;BME280_temperature;BME280_humidity;BME280_pressure;Samples;Min_cycle;Max_cycle;Signal;HPM_P1;HPM_P2
2021/12/29 00:02:08;;;;;;;14.70;6.72;;;;;;;;;;5077239;28;20555;-78
2021/12/29 00:04:34;;;;;;;13.40;6.57;;;;;;;;;;5078703;28;20059;-79
2021/12/29 00:06:59;;;;;;;14.02;6.35;;;;;;;;;;5079407;28;20384;-78
2021/12/29 00:09:25;;;;;;;13.38;6.13;;;;;;;;;;5078484;28;20539;-77
2021/12/29 00:11:51;;;;;;;11.82;6.32;;;;;;;;;;5078362;28;20035;-80
2021/12/29 00:14:17;;;;;;;11.63;5.78;;;;;;;;;;5078226;28;20081;-79
2021/12/29 00:16:42;;;;;;;13.05;6.50;;;;;;;;;;5078104;28;20103;-80
2021/12/29 00:19:08;;;;;;;12.95;6.57;;;;;;;;;;5079452;28;20509;-80
2021/12/29 00:21:35;;;;;;;13.73;6.32;;;;;;;;;;5078809;28;20385;-79
2021/12/29 00:24:02;;;;;;;15.63;6.68;;;;;;;;;;5078140;28;20029;-79
2021/12/29 00:26:30;;;;;;;13.55;6.60;;;;;;;;;;5079477;28;20051;-79
2021/12/29 00:28:59;;;;;;;13.50;6.95;;;;;;;;;;5077437;28;20024;-78
2021/12/29 00:31:29;;;;;;;12.88;5.82;;;;;;;;;;5077521;28;20027;-80
2021/12/29 00:33:54;;;;;;;16.30;7.35;;;;;;;;;;5077138;28;20025;-81
2021/12/29 00:36:20;;;;;;;13.05;6.15;;;;;;;;;;5076565;28;20111;-80
2021/12/29 00:38:45;;;;;;;13.85;6.75;;;;;;;;;;5077793;28;20054;-79
2021/12/29 00:41:11;;;;;;;16.15;7.40;;;;;;;;;;5077937;28;20020;-78
2021/12/29 00:43:37;;;;;;;13.38;7.07;;;;;;;;;;5077290;28;20564;-80
2021/12/29 00:46:02;;;;;;;16.00;7.28;;;;;;;;;;5077665;28;20060;-77
2021/12/29 00:48:35;;;;;;;11.85;6.22;;;;;;;;;;5077299;28;20531;-78
2021/12/29 00:51:00;;;;;;;13.70;6.33;;;;;;;;;;5077131;28;20363;-79
2021/12/29 00:53:26;;;;;;;14.65;6.78;;;;;;;;;;5076686;28;20256;-79
2021/12/29 00:55:51;;;;;;;15.57;6.45;;;;;;;;;;5076783;28;20481;-77
2021/12/29 00:58:17;;;;;;;13.27;6.35;;;;;;;;;;5078121;28;20031;-79
2021/12/29 01:00:42;;;;;;;14.82;6.45;;;;;;;;;;5077994;28;20025;-80
2021/12/29 01:03:08;;;;;;;15.77;5.75;;;;;;;;;;5076573;28;20032;-78
2021/12/29 01:05:35;;;;;;;16.05;5.88;;;;;;;;;;5077409;28;20032;-78
2021/12/29 01:08:00;;;;;;;12.75;6.18;;;;;;;;;;5077774;28;20020;-80
2021/12/29 01:10:26;;;;;;;13.68;6.68;;;;;;;;;;5080525;28;20496;-79
2021/12/29 01:12:58;;;;;;;16.02;6.35;;;;;;;;;;5081411;28;20039;-79
2021/12/29 01:15:31;;;;;;;16.33;6.68;;;;;;;;;;5081687;28;20024;-78
2021/12/29 01:17:57;;;;;;;11.25;5.57;;;;;;;;;;5080006;28;20039;-79
2021/12/29 01:20:23;;;;;;;12.43;6.15;;;;;;;;;;5081126;28;20036;-79
2021/12/29 01:22:50;;;;;;;14.27;5.70;;;;;;;;;;5080209;28;20409;-78
2021/12/29 01:25:15;;;;;;;15.05;6.75;;;;;;;;;;5079632;28;20024;-78
2021/12/29 01:27:40;;;;;;;13.45;6.50;;;;;;;;;;5077727;28;20531;-78
2021/12/29 01:30:10;;;;;;;11.48;5.68;;;;;;;;;;5078417;28;20377;-80
2021/12/29 01:32:36;;;;;;;13.00;6.75;;;;;;;;;;5076250;28;20020;-77
2021/12/29 01:35:01;;;;;;;14.65;5.95;;;;;;;;;;5076966;28;20485;-79
2021/12/29 01:37:26;;;;;;;14.05;6.45;;;;;;;;;;5076887;28;20085;-79
2021/12/29 01:39:52;;;;;;;13.43;6.25;;;;;;;;;;5078339;28;20056;-79
2021/12/29 01:42:17;;;;;;;13.70;6.20;;;;;;;;;;5078792;28;20023;-78
2021/12/29 01:44:43;;;;;;;11.18;6.05;;;;;;;;;;5076162;28;20047;-79
2021/12/29 01:47:08;;;;;;;14.05;7.07;;;;;;;;;;5077587;28;20077;-80
2021/12/29 01:49:33;;;;;;;15.18;6.28;;;;;;;;;;5076383;28;20035;-78
2021/12/29 01:52:03;;;;;;;14.25;6.57;;;;;;;;;;5076027;28;20028;-77
2021/12/29 01:54:34;;;;;;;13.00;6.40;;;;;;;;;;5077469;28;20476;-78
2021/12/29 01:57:00;;;;;;;11.68;6.03;;;;;;;;;;5077131;28;20466;-81
2021/12/29 01:59:27;;;;;;;10.02;5.68;;;;;;;;;;5078880;28;20079;-78
2021/12/29 02:01:53;;;;;;;13.63;6.07;;;;;;;;;;5078819;28;20028;-80
2021/12/29 02:04:19;;;;;;;15.57;6.25;;;;;;;;;;5078987;28;20036;-78
2021/12/29 02:06:44;;;;;;;13.25;6.47;;;;;;;;;;5077654;28;20021;-80
2021/12/29 02:09:10;;;;;;;12.68;6.38;;;;;;;;;;5077013;28;20017;-79
2021/12/29 02:11:37;;;;;;;16.88;6.57;;;;;;;;;;5083441;28;20047;-80
2021/12/29 02:14:05;;;;;;;13.70;6.85;;;;;;;;;;5082200;28;20366;-79
2021/12/29 02:16:30;;;;;;;16.10;6.70;;;;;;;;;;5080221;28;20028;-80
2021/12/29 02:18:59;;;;;;;10.73;5.82;;;;;;;;;;5076098;28;20020;-79
2021/12/29 02:21:27;;;;;;;10.55;6.00;;;;;;;;;;5075714;28;20025;-79
2021/12/29 02:26:38;;;;;;;10.90;5.72;;;;;;;;;;5077960;28;20085;-77
2021/12/29 02:29:06;;;;;;;12.75;6.07;;;;;;;;;;5076886;28;20505;-80
2021/12/29 02:31:32;;;;;;;11.82;5.88;;;;;;;;;;5075435;28;20489;-80
2021/12/29 02:33:59;;;;;;;10.18;5.80;;;;;;;;;;5077046;28;20024;-80
2021/12/29 02:36:25;;;;;;;11.68;5.32;;;;;;;;;;5075646;28;20107;-77
2021/12/29 02:38:54;;;;;;;11.35;5.30;;;;;;;;;;5075503;28;20028;-78
2021/12/29 02:41:20;;;;;;;12.80;5.78;;;;;;;;;;5077379;28;20020;-79
2021/12/29 02:43:47;;;;;;;12.73;6.10;;;;;;;;;;5075760;28;20024;-79
2021/12/29 02:46:15;;;;;;;10.18;6.05;;;;;;;;;;5075703;28;20024;-79
2021/12/29 02:48:59;;;;;;;15.98;6.55;;;;;;;;;;5077623;28;20024;-78
2021/12/29 02:51:25;;;;;;;12.73;6.32;;;;;;;;;;5080698;28;20104;-78
2021/12/29 02:53:50;;;;;;;13.10;6.32;;;;;;;;;;5079894;28;20056;-78
2021/12/29 02:56:15;;;;;;;12.18;6.32;;;;;;;;;;5080628;28;20032;-78
2021/12/29 02:58:41;;;;;;;13.25;6.72;;;;;;;;;;5078806;28;20027;-78
2021/12/29 03:01:11;;;;;;;13.55;6.82;;;;;;;;;;5080563;28;20020;-78
2021/12/29 03:03:39;;;;;;;13.05;6.05;;;;;;;;;;5079586;28;20024;-80
2021/12/29 03:06:06;;;;;;;13.07;6.57;;;;;;;;;;5081045;28;20035;-78
2021/12/29 03:08:31;;;;;;;13.00;6.28;;;;;;;;;;5079747;28;20063;-78
2021/12/29 03:10:56;;;;;;;11.95;6.55;;;;;;;;;;5080737;28;20020;-78
2021/12/29 03:13:28;;;;;;;13.52;6.90;;;;;;;;;;5080422;28;20028;-78
2021/12/29 03:15:54;;;;;;;11.48;6.60;;;;;;;;;;5080644;28;20024;-78
2021/12/29 03:18:20;;;;;;;11.85;6.35;;;;;;;;;;5080077;28;20025;-79
2021/12/29 03:20:46;;;;;;;12.27;6.53;;;;;;;;;;5080749;28;20024;-79
2021/12/29 03:23:12;;;;;;;13.25;6.47;;;;;;;;;;5080525;28;20031;-79
2021/12/29 03:25:37;;;;;;;13.27;6.60;;;;;;;;;;5079925;28;20031;-78
2021/12/29 03:28:04;;;;;;;13.30;6.40;;;;;;;;;;5080209;28;20024;-79
2021/12/29 03:30:33;;;;;;;11.88;6.65;;;;;;;;;;5080985;28;20020;-79
2021/12/29 03:33:04;;;;;;;12.43;6.75;;;;;;;;;;5079395;28;20031;-78
2021/12/29 03:35:38;;;;;;;13.45;7.47;;;;;;;;;;5080899;28;20574;-78
2021/12/29 03:38:07;;;;;;;13.15;6.53;;;;;;;;;;5079804;28;20024;-80
2021/12/29 03:40:36;;;;;;;11.93;6.78;;;;;;;;;;5079770;28;20482;-80
2021/12/29 03:43:03;;;;;;;11.32;6.75;;;;;;;;;;5078250;28;20028;-80
2021/12/29 03:45:29;;;;;;;12.60;7.25;;;;;;;;;;5078756;28;20029;-80
2021/12/29 03:47:54;;;;;;;13.93;7.32;;;;;;;;;;5079328;28;20055;-78
2021/12/29 03:50:19;;;;;;;16.50;8.10;;;;;;;;;;5077131;28;20057;-79
2021/12/29 03:52:45;;;;;;;14.27;6.97;;;;;;;;;;5079011;28;20027;-79
2021/12/29 03:55:10;;;;;;;13.68;7.55;;;;;;;;;;5077448;28;20389;-78
2021/12/29 03:57:36;;;;;;;13.98;7.50;;;;;;;;;;5078520;28;20461;-79
2021/12/29 04:00:04;;;;;;;13.57;7.05;;;;;;;;;;5078912;28;20024;-77
2021/12/29 04:02:29;;;;;;;14.68;6.70;;;;;;;;;;5076346;28;20070;-79
2021/12/29 04:04:55;;;;;;;13.52;7.07;;;;;;;;;;5078166;28;20024;-79
2021/12/29 04:07:20;;;;;;;12.05;7.43;;;;;;;;;;5078394;28;20029;-79
2021/12/29 04:09:45;;;;;;;12.43;6.63;;;;;;;;;;5078395;28;20035;-80
2021/12/29 04:12:11;;;;;;;12.18;7.22;;;;;;;;;;5078135;28;20024;-78
2021/12/29 04:14:36;;;;;;;11.27;6.75;;;;;;;;;;5078717;28;20032;-79
2021/12/29 04:17:09;;;;;;;13.57;6.60;;;;;;;;;;5079149;28;20020;-79
2021/12/29 04:20:54;;;;;;;16.60;7.78;;;;;;;;;;5077624;28;20116;-81
2021/12/29 04:22:31;;;;;;;11.52;7.05;;;;;;;;;;5077268;28;20028;-78
2021/12/29 04:24:57;;;;;;;12.02;6.78;;;;;;;;;;5078446;28;20044;-79
2021/12/29 04:27:24;;;;;;;12.30;7.05;;;;;;;;;;5078198;28;20040;-77
2021/12/29 04:29:50;;;;;;;12.07;6.35;;;;;;;;;;5079392;28;20020;-79
2021/12/29 04:32:15;;;;;;;12.10;6.63;;;;;;;;;;5077113;28;20448;-78
2021/12/29 04:34:40;;;;;;;12.75;6.78;;;;;;;;;;5078427;28;20059;-78
2021/12/29 04:37:05;;;;;;;13.73;6.63;;;;;;;;;;5078442;28;20115;-78
2021/12/29 04:39:31;;;;;;;14.18;6.72;;;;;;;;;;5077063;28;20032;-78
2021/12/29 04:41:56;;;;;;;10.30;6.25;;;;;;;;;;5078071;28;20429;-80
2021/12/29 04:44:21;;;;;;;12.57;6.68;;;;;;;;;;5078061;28;20027;-79
2021/12/29 04:46:47;;;;;;;12.73;7.13;;;;;;;;;;5078444;28;20040;-79
2021/12/29 04:49:14;;;;;;;12.73;6.40;;;;;;;;;;5078042;28;20070;-80
2021/12/29 04:51:51;;;;;;;12.23;6.68;;;;;;;;;;5076460;28;20500;-80
2021/12/29 04:54:17;;;;;;;14.80;7.00;;;;;;;;;;5077708;28;20056;-78
2021/12/29 04:56:43;;;;;;;14.77;6.90;;;;;;;;;;5078452;28;20032;-79
2021/12/29 04:59:08;;;;;;;15.90;7.90;;;;;;;;;;5077034;28;20028;-79
2021/12/29 05:01:33;;;;;;;13.75;6.88;;;;;;;;;;5077359;28;20139;-79
2021/12/29 05:03:58;;;;;;;11.98;6.70;;;;;;;;;;5075807;28;20028;-79
2021/12/29 05:09:08;;;;;;;;;;;;;;;;;;5077393;28;20101;-79
2021/12/29 05:11:33;;;;;;;12.20;6.10;;;;;;;;;;5077452;28;19912;-78
2021/12/29 05:13:58;;;;;;;14.82;6.97;;;;;;;;;;5077905;28;20261;-79
2021/12/29 05:16:27;;;;;;;11.30;7.05;;;;;;;;;;5078511;28;20033;-79
2021/12/29 05:18:53;;;;;;;14.15;7.07;;;;;;;;;;5076949;28;20488;-79
2021/12/29 05:21:18;;;;;;;12.57;6.95;;;;;;;;;;5078492;28;20024;-79
2021/12/29 05:23:44;;;;;;;11.38;6.80;;;;;;;;;;5078077;28;20028;-79
2021/12/29 05:26:09;;;;;;;13.48;6.50;;;;;;;;;;5077384;28;20085;-79
2021/12/29 05:28:34;;;;;;;12.98;6.65;;;;;;;;;;5077527;28;20024;-79
2021/12/29 05:31:00;;;;;;;11.98;6.85;;;;;;;;;;5075854;28;20096;-79
2021/12/29 05:33:25;;;;;;;12.50;6.32;;;;;;;;;;5077233;28;20032;-79
2021/12/29 05:35:51;;;;;;;14.20;6.97;;;;;;;;;;5074409;28;20398;-78
2021/12/29 05:38:16;;;;;;;11.43;6.00;;;;;;;;;;5075725;28;20071;-78
2021/12/29 05:40:41;;;;;;;11.88;6.88;;;;;;;;;;5075668;28;20063;-79
2021/12/29 05:43:07;;;;;;;13.82;6.93;;;;;;;;;;5076904;28;20060;-79
2021/12/29 05:45:32;;;;;;;14.23;7.80;;;;;;;;;;5076036;28;20027;-77
2021/12/29 05:47:58;;;;;;;14.30;7.20;;;;;;;;;;5075758;28;20044;-79
2021/12/29 05:50:26;;;;;;;15.15;7.43;;;;;;;;;;5076921;28;20024;-76
2021/12/29 05:52:53;;;;;;;14.93;7.10;;;;;;;;;;5076398;28;20078;-79
2021/12/29 05:55:18;;;;;;;13.52;6.68;;;;;;;;;;5077260;28;20025;-79
2021/12/29 05:57:44;;;;;;;14.07;6.80;;;;;;;;;;5076018;28;20378;-76
2021/12/29 06:00:14;;;;;;;14.32;7.00;;;;;;;;;;5076426;28;20539;-77
2021/12/29 06:02:39;;;;;;;12.75;6.40;;;;;;;;;;5077175;28;20385;-78
2021/12/29 06:05:06;;;;;;;14.93;7.47;;;;;;;;;;5076060;28;20025;-79
2021/12/29 06:07:33;;;;;;;13.25;6.82;;;;;;;;;;5077770;28;20111;-79
2021/12/29 06:09:58;;;;;;;11.35;6.57;;;;;;;;;;5076516;28;20029;-79
2021/12/29 06:12:23;;;;;;;12.70;7.22;;;;;;;;;;5077862;28;20588;-78
2021/12/29 06:14:49;;;;;;;14.68;7.00;;;;;;;;;;5076991;28;20485;-80
2021/12/29 06:17:14;;;;;;;12.88;6.75;;;;;;;;;;5076905;28;20022;-76
2021/12/29 06:19:40;;;;;;;14.23;7.20;;;;;;;;;;5075235;28;20054;-77
2021/12/29 06:22:09;;;;;;;14.07;7.07;;;;;;;;;;5075418;28;20027;-79
2021/12/29 06:24:34;;;;;;;12.02;7.05;;;;;;;;;;5076064;28;20393;-78
2021/12/29 06:27:00;;;;;;;12.88;6.47;;;;;;;;;;5077322;28;20024;-79
2021/12/29 06:29:25;;;;;;;16.92;7.45;;;;;;;;;;5078662;28;20099;-79
2021/12/29 06:31:51;;;;;;;13.85;7.68;;;;;;;;;;5079295;28;20028;-77
2021/12/29 06:34:16;;;;;;;13.68;7.25;;;;;;;;;;5080522;28;20048;-78
2021/12/29 06:36:42;;;;;;;12.35;6.40;;;;;;;;;;5081634;28;20025;-78
2021/12/29 06:39:07;;;;;;;13.05;7.25;;;;;;;;;;5081637;28;20477;-79
2021/12/29 06:41:32;;;;;;;13.13;6.70;;;;;;;;;;5081352;28;20111;-78
2021/12/29 06:43:57;;;;;;;13.27;7.05;;;;;;;;;;5080343;28;20021;-78
2021/12/29 06:46:23;;;;;;;14.18;7.25;;;;;;;;;;5080857;28;20016;-79
2021/12/29 06:48:48;;;;;;;16.23;7.85;;;;;;;;;;5081536;28;20032;-78
2021/12/29 06:51:13;;;;;;;13.23;6.88;;;;;;;;;;5080210;28;20070;-77
2021/12/29 06:53:39;;;;;;;17.98;7.43;;;;;;;;;;5081236;28;20023;-79
2021/12/29 06:56:05;;;;;;;16.05;7.63;;;;;;;;;;5081064;28;20021;-78
2021/12/29 06:58:31;;;;;;;17.75;7.97;;;;;;;;;;5081879;28;20474;-79
2021/12/29 07:00:56;;;;;;;13.75;7.65;;;;;;;;;;5080965;28;20040;-80
2021/12/29 07:03:23;;;;;;;15.30;7.70;;;;;;;;;;5079185;28;20517;-79
2021/12/29 07:05:48;;;;;;;14.70;7.60;;;;;;;;;;5079821;28;20435;-79
2021/12/29 07:08:14;;;;;;;14.02;7.22;;;;;;;;;;5080511;28;20033;-78
2021/12/29 07:10:42;;;;;;;15.05;7.47;;;;;;;;;;5080675;28;20105;-78
2021/12/29 07:13:07;;;;;;;16.17;7.45;;;;;;;;;;5079079;28;20478;-80
2021/12/29 07:15:32;;;;;;;14.45;7.57;;;;;;;;;;5079896;28;20028;-78
2021/12/29 07:17:57;;;;;;;13.35;7.65;;;;;;;;;;5079100;28;20033;-78
2021/12/29 07:20:23;;;;;;;14.85;7.28;;;;;;;;;;5079906;28;20027;-79
2021/12/29 07:22:48;;;;;;;16.50;7.10;;;;;;;;;;5079884;28;20024;-78
2021/12/29 07:25:13;;;;;;;14.68;7.28;;;;;;;;;;5081251;28;20028;-79
2021/12/29 07:27:38;;;;;;;16.92;8.00;;;;;;;;;;5078388;28;20037;-78
2021/12/29 07:30:04;;;;;;;17.02;7.30;;;;;;;;;;5079227;28;20028;-80
2021/12/29 07:32:31;;;;;;;13.40;7.32;;;;;;;;;;5078592;28;20025;-81
2021/12/29 07:34:57;;;;;;;14.80;7.53;;;;;;;;;;5079901;28;20551;-79
2021/12/29 07:37:22;;;;;;;19.08;7.78;;;;;;;;;;5080053;28;20024;-77
2021/12/29 07:39:47;;;;;;;12.90;7.30;;;;;;;;;;5080684;28;20027;-79
2021/12/29 07:42:13;;;;;;;15.52;7.85;;;;;;;;;;5080351;28;20095;-79
2021/12/29 07:44:40;;;;;;;15.38;8.00;;;;;;;;;;5080486;28;20036;-79
2021/12/29 07:47:06;;;;;;;15.52;7.85;;;;;;;;;;5080256;28;20089;-78
2021/12/29 07:49:31;;;;;;;16.50;8.10;;;;;;;;;;5078745;28;20024;-79
2021/12/29 07:51:56;;;;;;;14.80;7.90;;;;;;;;;;5080344;28;20394;-79
2021/12/29 07:54:22;;;;;;;15.68;7.63;;;;;;;;;;5081769;28;20088;-79
2021/12/29 07:56:48;;;;;;;15.23;7.53;;;;;;;;;;5080979;28;20025;-79
2021/12/29 07:59:14;;;;;;;13.45;7.40;;;;;;;;;;5080248;28;20031;-78
2021/12/29 08:01:40;;;;;;;14.70;7.43;;;;;;;;;;5080991;28;20090;-77
2021/12/29 08:04:05;;;;;;;13.40;7.10;;;;;;;;;;5080695;28;20035;-78
2021/12/29 08:06:30;;;;;;;19.05;7.65;;;;;;;;;;5080505;28;20024;-80
2021/12/29 08:08:56;;;;;;;11.85;6.72;;;;;;;;;;5081039;28;20021;-79
2021/12/29 08:11:21;;;;;;;14.43;7.28;;;;;;;;;;5080821;28;20028;-80
2021/12/29 08:13:48;;;;;;;17.15;7.43;;;;;;;;;;5082094;28;20028;-79
2021/12/29 08:16:13;;;;;;;14.45;7.50;;;;;;;;;;5081157;28;20055;-79
2021/12/29 08:18:38;;;;;;;16.73;8.00;;;;;;;;;;5081619;28;20020;-78
2021/12/29 08:21:04;;;;;;;20.08;8.48;;;;;;;;;;5080339;28;20465;-80
2021/12/29 08:23:29;;;;;;;16.88;8.95;;;;;;;;;;5079609;28;20097;-79
2021/12/29 08:25:55;;;;;;;15.52;8.38;;;;;;;;;;5080402;28;20028;-77
2021/12/29 08:28:22;;;;;;;16.38;7.70;;;;;;;;;;5080630;28;20039;-78
2021/12/29 08:30:48;;;;;;;12.90;7.25;;;;;;;;;;5079711;28;20474;-77
2021/12/29 08:33:13;;;;;;;17.55;7.53;;;;;;;;;;5079852;28;20031;-80
2021/12/29 08:35:39;;;;;;;12.48;6.95;;;;;;;;;;5079505;28;20089;-79
2021/12/29 08:38:07;;;;;;;14.15;7.18;;;;;;;;;;5079887;28;20021;-79
2021/12/29 08:40:32;;;;;;;14.27;7.50;;;;;;;;;;5080115;28;20111;-79
2021/12/29 08:43:01;;;;;;;14.05;7.05;;;;;;;;;;5080379;28;20063;-79
2021/12/29 08:45:30;;;;;;;13.93;6.95;;;;;;;;;;5077420;28;20032;-78
2021/12/29 08:47:58;;;;;;;13.05;6.72;;;;;;;;;;5078459;28;20039;-78
2021/12/29 08:50:29;;;;;;;14.20;7.20;;;;;;;;;;5079423;28;20490;-79
2021/12/29 08:52:55;;;;;;;13.82;7.00;;;;;;;;;;5078989;28;20082;-79
2021/12/29 08:55:20;;;;;;;15.52;7.35;;;;;;;;;;5078535;28;20025;-79
2021/12/29 08:57:45;;;;;;;12.93;7.97;;;;;;;;;;5078424;28;20059;-78
2021/12/29 09:00:14;;;;;;;14.25;7.85;;;;;;;;;;5077433;28;20036;-77
2021/12/29 09:02:40;;;;;;;12.55;7.18;;;;;;;;;;5077659;28;20469;-78
2021/12/29 09:05:07;;;;;;;14.13;8.23;;;;;;;;;;5077296;28;20025;-78
2021/12/29 09:07:32;;;;;;;13.70;7.72;;;;;;;;;;5077401;28;20544;-78
2021/12/29 09:09:57;;;;;;;13.52;7.90;;;;;;;;;;5077864;28;20024;-78
2021/12/29 09:12:23;;;;;;;13.90;7.28;;;;;;;;;;5076530;28;20027;-77
2021/12/29 09:14:48;;;;;;;11.48;6.93;;;;;;;;;;5076187;28;20029;-79
2021/12/29 09:17:14;;;;;;;12.45;6.82;;;;;;;;;;5077860;28;20028;-79
2021/12/29 09:19:41;;;;;;;13.88;6.65;;;;;;;;;;5077610;28;20024;-77
2021/12/29 09:22:07;;;;;;;11.30;6.60;;;;;;;;;;5079121;28;20426;-78
2021/12/29 09:24:32;;;;;;;13.52;6.93;;;;;;;;;;5078765;28;20103;-78
2021/12/29 09:26:58;;;;;;;15.45;6.70;;;;;;;;;;5078760;28;20490;-77
2021/12/29 09:29:23;;;;;;;13.48;6.78;;;;;;;;;;5076796;28;20030;-78
2021/12/29 09:31:49;;;;;;;13.88;7.55;;;;;;;;;;5076101;28;20025;-77
2021/12/29 09:34:14;;;;;;;14.82;7.88;;;;;;;;;;5073352;28;20021;-77
2021/12/29 09:36:39;;;;;;;16.98;8.90;;;;;;;;;;5074862;28;20021;-77
2021/12/29 09:39:05;;;;;;;17.05;8.57;;;;;;;;;;5075194;28;20062;-77
2021/12/29 09:41:31;;;;;;;15.07;8.18;;;;;;;;;;5073573;28;20016;-81
2021/12/29 09:43:57;;;;;;;15.20;7.45;;;;;;;;;;5073833;28;20035;-76
2021/12/29 09:46:23;;;;;;;13.55;7.05;;;;;;;;;;5073929;28;20032;-79
2021/12/29 09:48:49;;;;;;;14.63;7.03;;;;;;;;;;5073471;28;20393;-78
2021/12/29 09:51:15;;;;;;;14.30;7.30;;;;;;;;;;5075461;28;20025;-79
2021/12/29 09:53:41;;;;;;;11.63;6.85;;;;;;;;;;5076045;28;20038;-79
2021/12/29 09:56:09;;;;;;;13.48;7.05;;;;;;;;;;5077478;28;20020;-78
2021/12/29 09:58:34;;;;;;;14.95;6.88;;;;;;;;;;5074576;28;20020;-76
2021/12/29 10:01:04;;;;;;;12.88;6.80;;;;;;;;;;5077340;28;20021;-78
2021/12/29 10:03:30;;;;;;;16.20;7.75;;;;;;;;;;5080937;28;20046;-78
2021/12/29 10:05:58;;;;;;;15.20;6.57;;;;;;;;;;5079404;28;20024;-79
2021/12/29 10:08:28;;;;;;;13.93;7.05;;;;;;;;;;5077884;28;20035;-77
2021/12/29 10:10:58;;;;;;;14.70;7.40;;;;;;;;;;5078275;28;20017;-78
2021/12/29 10:13:23;;;;;;;14.27;7.47;;;;;;;;;;5076961;28;20029;-77
2021/12/29 10:15:55;;;;;;;13.40;7.38;;;;;;;;;;5079280;28;20505;-78
2021/12/29 10:18:26;;;;;;;11.35;6.65;;;;;;;;;;5079530;28;20043;-77
2021/12/29 10:20:55;;;;;;;12.02;7.03;;;;;;;;;;5079912;28;20108;-79
2021/12/29 10:23:29;;;;;;;13.70;8.00;;;;;;;;;;5075935;28;20070;-77
2021/12/29 10:26:02;;;;;;;15.10;8.18;;;;;;;;;;5076407;28;20066;-76
2021/12/29 10:28:30;;;;;;;16.07;8.67;;;;;;;;;;5076031;28;20111;-77
2021/12/29 10:31:15;;;;;;;17.00;8.65;;;;;;;;;;5079836;28;20027;-78
2021/12/29 10:33:50;;;;;;;15.68;8.65;;;;;;;;;;5080163;28;20117;-78
2021/12/29 10:36:17;;;;;;;17.27;8.35;;;;;;;;;;5080183;28;20079;-78
2021/12/29 10:38:45;;;;;;;13.35;8.07;;;;;;;;;;5080133;28;20500;-79
2021/12/29 10:41:11;;;;;;;16.90;8.90;;;;;;;;;;5079572;28;20374;-79
2021/12/29 10:43:50;;;;;;;18.67;9.27;;;;;;;;;;5079778;28;20027;-78
2021/12/29 10:46:20;;;;;;;17.42;8.40;;;;;;;;;;5080019;28;20028;-78
2021/12/29 10:48:50;;;;;;;16.90;9.02;;;;;;;;;;5079006;28;20517;-77
2021/12/29 10:51:17;;;;;;;17.27;8.27;;;;;;;;;;5078805;28;20059;-80
2021/12/29 10:53:43;;;;;;;17.13;8.18;;;;;;;;;;5079145;28;20032;-79
2021/12/29 10:56:20;;;;;;;16.98;8.93;;;;;;;;;;5078265;28;20035;-79
2021/12/29 10:58:50;;;;;;;16.38;8.20;;;;;;;;;;5079137;28;20032;-77
2021/12/29 11:01:16;;;;;;;17.83;8.57;;;;;;;;;;5076927;28;20486;-77
2021/12/29 11:03:51;;;;;;;16.48;8.15;;;;;;;;;;5079826;28;20024;-77
2021/12/29 11:06:21;;;;;;;14.02;7.55;;;;;;;;;;5080667;28;20078;-80
2021/12/29 11:08:49;;;;;;;15.38;8.38;;;;;;;;;;5077840;28;20025;-79
2021/12/29 11:11:15;;;;;;;14.85;8.48;;;;;;;;;;5077138;28;20106;-79
2021/12/29 11:13:41;;;;;;;18.25;8.40;;;;;;;;;;5076568;28;20036;-77
2021/12/29 11:16:07;;;;;;;16.83;8.25;;;;;;;;;;5109811;28;20024;-79
2021/12/29 11:18:47;;;;;;;14.02;7.88;;;;;;;;;;5077781;28;20100;-78
2021/12/29 11:21:16;;;;;;;16.67;8.77;;;;;;;;;;5077932;28;20021;-79
2021/12/29 11:23:41;;;;;;;17.92;9.00;;;;;;;;;;5075899;28;20025;-79
2021/12/29 11:26:11;;;;;;;17.17;8.40;;;;;;;;;;5076886;28;20032;-78
2021/12/29 11:28:38;;;;;;;19.23;8.85;;;;;;;;;;5076768;28;20025;-79
2021/12/29 11:31:08;;;;;;;17.40;8.45;;;;;;;;;;5076852;28;20214;-78
2021/12/29 11:33:34;;;;;;;20.52;8.38;;;;;;;;;;5075495;28;20025;-78
2021/12/29 11:36:01;;;;;;;17.58;8.45;;;;;;;;;;5077048;28;20036;-78
2021/12/29 11:38:27;;;;;;;19.17;8.98;;;;;;;;;;5077349;28;20028;-78
2021/12/29 11:40:59;;;;;;;20.40;9.57;;;;;;;;;;5076743;28;20111;-78
2021/12/29 11:43:25;;;;;;;17.60;8.68;;;;;;;;;;5078328;28;20529;-79
2021/12/29 11:45:53;;;;;;;20.70;10.13;;;;;;;;;;5078345;28;20024;-78
2021/12/29 11:48:23;;;;;;;19.88;9.07;;;;;;;;;;5076877;28;20081;-78
2021/12/29 11:50:54;;;;;;;21.85;9.48;;;;;;;;;;5077897;28;20063;-78
2021/12/29 11:53:33;;;;;;;21.20;9.43;;;;;;;;;;5076820;28;20033;-79
2021/12/29 11:56:05;;;;;;;19.90;9.60;;;;;;;;;;5078286;28;20025;-78
2021/12/29 11:58:34;;;;;;;21.33;9.48;;;;;;;;;;5078608;28;20016;-79
2021/12/29 12:01:04;;;;;;;17.30;8.82;;;;;;;;;;5078684;28;20032;-78
2021/12/29 12:03:44;;;;;;;22.65;9.50;;;;;;;;;;5077402;28;20098;-77
2021/12/29 12:06:31;;;;;;;20.65;10.05;;;;;;;;;;5076270;28;20032;-79
2021/12/29 12:09:05;;;;;;;16.30;8.63;;;;;;;;;;5076853;28;20478;-79
2021/12/29 12:11:30;;;;;;;;;;;;;;;;;;5078396;28;20059;-78
2021/12/29 12:13:56;;;;;;;20.35;9.27;;;;;;;;;;5077254;28;19908;-79
2021/12/29 12:16:21;;;;;;;21.98;10.38;;;;;;;;;;5078403;28;20051;-78
2021/12/29 12:18:52;;;;;;;18.83;10.23;;;;;;;;;;5079030;28;20024;-77
2021/12/29 12:21:34;;;;;;;23.08;10.20;;;;;;;;;;5078678;28;20025;-78
2021/12/29 12:24:23;;;;;;;22.13;10.75;;;;;;;;;;5073540;28;20055;-78
2021/12/29 12:27:00;;;;;;;19.20;9.95;;;;;;;;;;5076148;28;20056;-77
2021/12/29 12:29:32;;;;;;;23.05;11.27;;;;;;;;;;5078352;28;20025;-77
2021/12/29 12:32:03;;;;;;;22.23;11.15;;;;;;;;;;5076031;28;20028;-77
2021/12/29 12:34:28;;;;;;;25.60;10.80;;;;;;;;;;5077879;28;20028;-77
2021/12/29 12:36:54;;;;;;;22.88;11.07;;;;;;;;;;5075308;28;20036;-78
2021/12/29 12:39:21;;;;;;;27.58;11.55;;;;;;;;;;5077580;28;20111;-78
2021/12/29 12:41:49;;;;;;;25.75;11.52;;;;;;;;;;5074601;28;20031;-77
2021/12/29 12:44:19;;;;;;;25.27;11.50;;;;;;;;;;5076459;28;20032;-78
2021/12/29 12:46:50;;;;;;;22.38;10.77;;;;;;;;;;5077815;28;20027;-79
2021/12/29 12:49:27;;;;;;;27.02;11.52;;;;;;;;;;5077775;28;20076;-78
2021/12/29 12:51:58;;;;;;;26.88;11.50;;;;;;;;;;5077191;28;20017;-78
2021/12/29 12:54:27;;;;;;;25.73;11.50;;;;;;;;;;5076810;28;20033;-79
2021/12/29 12:56:54;;;;;;;24.83;11.98;;;;;;;;;;5077142;28;20088;-79
2021/12/29 12:59:19;;;;;;;25.55;12.25;;;;;;;;;;5076994;28;20036;-77
2021/12/29 13:01:47;;;;;;;26.90;12.07;;;;;;;;;;5078806;28;20031;-79
2021/12/29 13:04:15;;;;;;;23.40;11.10;;;;;;;;;;5076536;28;20056;-79
2021/12/29 13:06:42;;;;;;;23.38;11.00;;;;;;;;;;5075732;28;20077;-80
2021/12/29 13:09:08;;;;;;;25.35;12.15;;;;;;;;;;5075320;28;20028;-78
2021/12/29 13:11:37;;;;;;;24.35;11.15;;;;;;;;;;5076447;28;20036;-78
2021/12/29 13:14:05;;;;;;;24.25;12.10;;;;;;;;;;5076465;28;20036;-78
2021/12/29 13:16:32;;;;;;;26.92;12.02;;;;;;;;;;5077587;28;20036;-78
2021/12/29 13:18:58;;;;;;;23.38;11.38;;;;;;;;;;5078462;28;20448;-78
2021/12/29 13:21:30;;;;;;;24.52;11.43;;;;;;;;;;5078011;28;20020;-77
2021/12/29 13:24:00;;;;;;;23.90;10.88;;;;;;;;;;5076837;28;20035;-78
2021/12/29 13:26:30;;;;;;;26.23;11.70;;;;;;;;;;5077803;28;20088;-78
2021/12/29 13:28:55;;;;;;;27.75;12.93;;;;;;;;;;5078672;28;20538;-79
2021/12/29 13:31:22;;;;;;;28.65;12.23;;;;;;;;;;5078010;28;20111;-79
2021/12/29 13:33:55;;;;;;;28.23;11.57;;;;;;;;;;5077783;28;20142;-78
2021/12/29 13:36:23;;;;;;;23.05;11.13;;;;;;;;;;5077714;28;20109;-79
2021/12/29 13:38:51;;;;;;;23.85;11.40;;;;;;;;;;5077531;28;20020;-78
2021/12/29 13:41:20;;;;;;;27.83;12.18;;;;;;;;;;5075973;28;20550;-79
2021/12/29 13:43:49;;;;;;;23.23;12.05;;;;;;;;;;5076316;28;20021;-78
2021/12/29 13:46:26;;;;;;;22.58;11.57;;;;;;;;;;5079045;28;20047;-78
2021/12/29 13:48:57;;;;;;;26.67;12.38;;;;;;;;;;5077936;28;20470;-78
2021/12/29 13:51:32;;;;;;;29.25;12.63;;;;;;;;;;5077409;28;20048;-79
2021/12/29 13:54:04;;;;;;;27.48;12.52;;;;;;;;;;5076815;28;20042;-79
2021/12/29 13:56:31;;;;;;;25.38;12.15;;;;;;;;;;5076753;28;20071;-78
2021/12/29 13:59:01;;;;;;;26.23;12.60;;;;;;;;;;5076370;28;20032;-78
2021/12/29 14:01:28;;;;;;;28.65;12.60;;;;;;;;;;5076747;28;20137;-78
2021/12/29 14:03:54;;;;;;;23.38;11.60;;;;;;;;;;5075308;28;20029;-79
2021/12/29 14:06:19;;;;;;;27.45;12.70;;;;;;;;;;5074801;28;20569;-78
2021/12/29 14:08:45;;;;;;;31.65;13.23;;;;;;;;;;5076168;28;20024;-78
2021/12/29 14:11:11;;;;;;;24.23;12.73;;;;;;;;;;5076711;28;20394;-78
2021/12/29 14:13:42;;;;;;;29.60;12.98;;;;;;;;;;5077073;28;20017;-78
2021/12/29 14:16:09;;;;;;;25.15;12.57;;;;;;;;;;5075334;28;20028;-78
2021/12/29 14:18:41;;;;;;;25.70;12.00;;;;;;;;;;5075639;28;20031;-78
2021/12/29 14:21:20;;;;;;;26.27;13.23;;;;;;;;;;5077504;28;20420;-78
2021/12/29 14:23:55;;;;;;;23.25;12.52;;;;;;;;;;5076689;28;20020;-78
2021/12/29 14:26:21;;;;;;;24.67;12.32;;;;;;;;;;5076555;28;20490;-79
2021/12/29 14:28:55;;;;;;;26.50;13.18;;;;;;;;;;5076480;28;20032;-78
2021/12/29 14:31:22;;;;;;;;;;;;;;;;;;5076598;28;20021;-78
2021/12/29 14:33:50;;;;;;;21.08;11.68;;;;;;;;;;5076855;28;19908;-79
2021/12/29 14:36:27;;;;;;;26.52;12.88;;;;;;;;;;5077083;28;20047;-78